sensor_id;sensor_type;location;lat;lon;timestamp;temperature;humidity
6536;DHT22;34330;52.08032700;5.40923460;2023-03-11T00:01:17;4.50;91.40
6536;DHT22;34330;52.08032700;5.40923460;2023-03-11T00:03:45;4.50;91.30
6536;DHT22;34330;52.08032700;5.40923460;2023-03-11T00:06:14;4.50;91.30
6536;DHT22;34330;52.08032700;5.40923460;2023-03-11T00:08:42;4.50;91.30
6536;DHT22;34330;52.08032700;5.40923460;2023-03-11T00:11:10;4.40;91.10
6536;DHT22;34330;52.08032700;5.40923460;2023-03-11T00:13:38;4.40;91.20
6536;DHT22;34330;52.08032700;5.40923460;2023-03-11T00:16:08;4.40;91.20
6536;DHT22;34330;52.08032700;5.40923460;2023-03-11T00:18:36;4.40;91.30
6536;DHT22;34330;52.08032700;5.40923460;2023-03-11T00:21:04;4.40;91.30
6536;DHT22;34330;52.08032700;5.40923460;2023-03-11T00:23:32;4.40;91.30
6536;DHT22;34330;52.08032700;5.40923460;2023-03-11T00:26:01;4.40;91.30
6536;DHT22;34330;52.08032700;5.40923460;2023-03-11T00:28:29;4.40;91.30
6536;DHT22;34330;52.08032700;5.40923460;2023-03-11T00:31:01;4.30;91.10
6536;DHT22;34330;52.08032700;5.40923460;2023-03-11T00:33:30;4.30;91.20
6536;DHT22;34330;52.08032700;5.40923460;2023-03-11T00:35:58;4.30;91.20
6536;DHT22;34330;52.08032700;5.40923460;2023-03-11T00:38:26;4.30;91.30
6536;DHT22;34330;52.08032700;5.40923460;2023-03-11T00:40:54;4.40;91.30
6536;DHT22;34330;52.08032700;5.40923460;2023-03-11T00:43:22;4.40;91.30
6536;DHT22;34330;52.08032700;5.40923460;2023-03-11T00:45:50;4.40;91.20
6536;DHT22;34330;52.08032700;5.40923460;2023-03-11T00:48:17;4.40;91.20
6536;DHT22;34330;52.08032700;5.40923460;2023-03-11T00:50:47;4.40;91.10
6536;DHT22;34330;52.08032700;5.40923460;2023-03-11T00:53:16;4.40;91.00
6536;DHT22;34330;52.08032700;5.40923460;2023-03-11T00:55:44;4.40;91.00
6536;DHT22;34330;52.08032700;5.40923460;2023-03-11T00:58:12;4.40;91.00
6536;DHT22;34330;52.08032700;5.40923460;2023-03-11T01:00:39;4.40;91.00
6536;DHT22;34330;52.08032700;5.40923460;2023-03-11T01:03:08;4.40;91.00
6536;DHT22;34330;52.08032700;5.40923460;2023-03-11T01:05:36;6.00;91.60
6536;DHT22;34330;52.08032700;5.40923460;2023-03-11T01:08:06;4.70;91.00
6536;DHT22;34330;52.08032700;5.40923460;2023-03-11T01:10:34;4.50;90.80
6536;DHT22;34330;52.08032700;5.40923460;2023-03-11T01:13:02;4.50;90.80
6536;DHT22;34330;52.08032700;5.40923460;2023-03-11T01:15:33;4.50;90.70
6536;DHT22;34330;52.08032700;5.40923460;2023-03-11T01:18:03;4.50;90.70
6536;DHT22;34330;52.08032700;5.40923460;2023-03-11T01:20:31;4.50;90.70
6536;DHT22;34330;52.08032700;5.40923460;2023-03-11T01:22:58;4.50;90.70
6536;DHT22;34330;52.08032700;5.40923460;2023-03-11T01:25:28;4.50;90.60
6536;DHT22;34330;52.08032700;5.40923460;2023-03-11T01:27:56;4.50;90.60
6536;DHT22;34330;52.08032700;5.40923460;2023-03-11T01:30:25;4.50;90.60
6536;DHT22;34330;52.08032700;5.40923460;2023-03-11T01:32:55;4.50;90.60
6536;DHT22;34330;52.08032700;5.40923460;2023-03-11T01:35:24;4.60;90.60
6536;DHT22;34330;52.08032700;5.40923460;2023-03-11T01:37:53;4.50;90.50
6536;DHT22;34330;52.08032700;5.40923460;2023-03-11T01:40:25;4.50;90.40
6536;DHT22;34330;52.08032700;5.40923460;2023-03-11T01:42:54;4.50;90.50
6536;DHT22;34330;52.08032700;5.40923460;2023-03-11T01:45:40;4.50;90.50
6536;DHT22;34330;52.08032700;5.40923460;2023-03-11T01:48:09;4.50;90.60
6536;DHT22;34330;52.08032700;5.40923460;2023-03-11T01:50:40;4.50;90.60
6536;DHT22;34330;52.08032700;5.40923460;2023-03-11T01:53:12;4.50;90.60
6536;DHT22;34330;52.08032700;5.40923460;2023-03-11T01:55:42;4.50;90.60
6536;DHT22;34330;52.08032700;5.40923460;2023-03-11T01:58:16;4.50;90.50
6536;DHT22;34330;52.08032700;5.40923460;2023-03-11T02:00:45;4.50;90.60
6536;DHT22;34330;52.08032700;5.40923460;2023-03-11T02:03:17;4.50;90.70
6536;DHT22;34330;52.08032700;5.40923460;2023-03-11T02:05:48;4.50;90.60
6536;DHT22;34330;52.08032700;5.40923460;2023-03-11T02:08:16;4.50;90.60
6536;DHT22;34330;52.08032700;5.40923460;2023-03-11T02:10:44;4.50;90.60
6536;DHT22;34330;52.08032700;5.40923460;2023-03-11T02:13:15;4.50;90.60
6536;DHT22;34330;52.08032700;5.40923460;2023-03-11T02:15:43;4.60;90.60
6536;DHT22;34330;52.08032700;5.40923460;2023-03-11T02:18:13;4.50;90.60
6536;DHT22;34330;52.08032700;5.40923460;2023-03-11T02:20:46;4.50;90.60
6536;DHT22;34330;52.08032700;5.40923460;2023-03-11T02:23:16;4.50;90.60
6536;DHT22;34330;52.08032700;5.40923460;2023-03-11T02:25:52;4.50;90.60
6536;DHT22;34330;52.08032700;5.40923460;2023-03-11T02:28:23;4.50;90.60
6536;DHT22;34330;52.08032700;5.40923460;2023-03-11T02:30:52;4.50;90.50
6536;DHT22;34330;52.08032700;5.40923460;2023-03-11T02:33:24;4.40;90.50
6536;DHT22;34330;52.08032700;5.40923460;2023-03-11T02:35:55;4.40;90.40
6536;DHT22;34330;52.08032700;5.40923460;2023-03-11T02:38:23;4.80;90.60
6536;DHT22;34330;52.08032700;5.40923460;2023-03-11T02:40:53;4.90;90.60
6536;DHT22;34330;52.08032700;5.40923460;2023-03-11T02:43:27;4.40;90.40
6536;DHT22;34330;52.08032700;5.40923460;2023-03-11T02:45:59;4.70;90.60
6536;DHT22;34330;52.08032700;5.40923460;2023-03-11T02:48:28;5.50;90.90
6536;DHT22;34330;52.08032700;5.40923460;2023-03-11T02:50:57;2.90;89.60
6536;DHT22;34330;52.08032700;5.40923460;2023-03-11T02:53:30;5.40;90.90
6536;DHT22;34330;52.08032700;5.40923460;2023-03-11T02:55:59;4.60;90.40
6536;DHT22;34330;52.08032700;5.40923460;2023-03-11T02:58:29;4.40;90.30
6536;DHT22;34330;52.08032700;5.40923460;2023-03-11T03:00:57;4.40;90.20
6536;DHT22;34330;52.08032700;5.40923460;2023-03-11T03:03:25;4.40;90.20
6536;DHT22;34330;52.08032700;5.40923460;2023-03-11T03:05:53;4.30;90.10
6536;DHT22;34330;52.08032700;5.40923460;2023-03-11T03:08:21;4.30;90.10
6536;DHT22;34330;52.08032700;5.40923460;2023-03-11T03:10:49;4.30;90.20
6536;DHT22;34330;52.08032700;5.40923460;2023-03-11T03:13:17;4.30;90.20
6536;DHT22;34330;52.08032700;5.40923460;2023-03-11T03:15:46;4.30;90.10
6536;DHT22;34330;52.08032700;5.40923460;2023-03-11T03:18:14;4.30;90.00
6536;DHT22;34330;52.08032700;5.40923460;2023-03-11T03:20:42;6.30;90.90
6536;DHT22;34330;52.08032700;5.40923460;2023-03-11T03:23:10;4.20;90.00
6536;DHT22;34330;52.08032700;5.40923460;2023-03-11T03:25:41;4.30;90.00
6536;DHT22;34330;52.08032700;5.40923460;2023-03-11T03:28:09;4.20;90.00
6536;DHT22;34330;52.08032700;5.40923460;2023-03-11T03:30:38;4.20;90.00
6536;DHT22;34330;52.08032700;5.40923460;2023-03-11T03:33:08;4.10;89.80
6536;DHT22;34330;52.08032700;5.40923460;2023-03-11T03:35:41;4.20;89.90
6536;DHT22;34330;52.08032700;5.40923460;2023-03-11T03:38:10;4.10;89.80
6536;DHT22;34330;52.08032700;5.40923460;2023-03-11T03:40:39;4.10;89.70
6536;DHT22;34330;52.08032700;5.40923460;2023-03-11T03:43:12;4.10;89.80
6536;DHT22;34330;52.08032700;5.40923460;2023-03-11T03:45:40;4.00;89.50
6536;DHT22;34330;52.08032700;5.40923460;2023-03-11T03:48:09;4.00;89.30
6536;DHT22;34330;52.08032700;5.40923460;2023-03-11T03:50:38;3.90;89.00
6536;DHT22;34330;52.08032700;5.40923460;2023-03-11T03:53:06;3.90;89.00
6536;DHT22;34330;52.08032700;5.40923460;2023-03-11T03:55:34;3.90;89.10
6536;DHT22;34330;52.08032700;5.40923460;2023-03-11T03:58:02;3.80;89.20
6536;DHT22;34330;52.08032700;5.40923460;2023-03-11T04:00:30;3.80;89.20
6536;DHT22;34330;52.08032700;5.40923460;2023-03-11T04:02:58;4.00;89.60
6536;DHT22;34330;52.08032700;5.40923460;2023-03-11T04:05:27;3.80;89.60
6536;DHT22;34330;52.08032700;5.40923460;2023-03-11T04:07:55;3.70;89.70
6536;DHT22;34330;52.08032700;5.40923460;2023-03-11T04:10:23;3.90;89.80
6536;DHT22;34330;52.08032700;5.40923460;2023-03-11T04:12:51;3.70;89.70
6536;DHT22;34330;52.08032700;5.40923460;2023-03-11T04:15:19;3.70;89.70
6536;DHT22;34330;52.08032700;5.40923460;2023-03-11T04:17:47;3.70;89.80
6536;DHT22;34330;52.08032700;5.40923460;2023-03-11T04:20:15;3.70;89.80
6536;DHT22;34330;52.08032700;5.40923460;2023-03-11T04:22:44;3.70;89.90
6536;DHT22;34330;52.08032700;5.40923460;2023-03-11T04:25:12;3.90;90.00
6536;DHT22;34330;52.08032700;5.40923460;2023-03-11T04:27:40;3.70;90.00
6536;DHT22;34330;52.08032700;5.40923460;2023-03-11T04:30:12;3.60;90.10
6536;DHT22;34330;52.08032700;5.40923460;2023-03-11T04:32:40;3.60;90.10
6536;DHT22;34330;52.08032700;5.40923460;2023-03-11T04:35:09;3.60;90.10
6536;DHT22;34330;52.08032700;5.40923460;2023-03-11T04:37:37;3.60;90.00
6536;DHT22;34330;52.08032700;5.40923460;2023-03-11T04:40:08;3.60;89.90
6536;DHT22;34330;52.08032700;5.40923460;2023-03-11T04:42:36;3.60;89.90
6536;DHT22;34330;52.08032700;5.40923460;2023-03-11T04:45:06;3.60;89.80
6536;DHT22;34330;52.08032700;5.40923460;2023-03-11T04:47:34;3.60;89.90
6536;DHT22;34330;52.08032700;5.40923460;2023-03-11T04:50:02;3.60;89.80
6536;DHT22;34330;52.08032700;5.40923460;2023-03-11T04:52:30;3.60;90.00
6536;DHT22;34330;52.08032700;5.40923460;2023-03-11T04:54:58;3.50;89.80
6536;DHT22;34330;52.08032700;5.40923460;2023-03-11T04:57:27;3.50;90.20
6536;DHT22;34330;52.08032700;5.40923460;2023-03-11T04:59:55;3.50;89.90
6536;DHT22;34330;52.08032700;5.40923460;2023-03-11T05:02:23;3.50;90.00
6536;DHT22;34330;52.08032700;5.40923460;2023-03-11T05:04:51;3.50;90.00
6536;DHT22;34330;52.08032700;5.40923460;2023-03-11T05:07:19;3.40;89.90
6536;DHT22;34330;52.08032700;5.40923460;2023-03-11T05:09:47;3.60;90.10
6536;DHT22;34330;52.08032700;5.40923460;2023-03-11T05:12:15;3.40;90.00
6536;DHT22;34330;52.08032700;5.40923460;2023-03-11T05:14:44;3.40;90.00
6536;DHT22;34330;52.08032700;5.40923460;2023-03-11T05:17:12;5.70;91.00
6536;DHT22;34330;52.08032700;5.40923460;2023-03-11T05:19:40;3.40;90.00
6536;DHT22;34330;52.08032700;5.40923460;2023-03-11T05:22:08;3.30;90.00
6536;DHT22;34330;52.08032700;5.40923460;2023-03-11T05:24:36;3.30;90.00
6536;DHT22;34330;52.08032700;5.40923460;2023-03-11T05:27:04;3.30;89.80
6536;DHT22;34330;52.08032700;5.40923460;2023-03-11T05:29:32;3.30;90.00
6536;DHT22;34330;52.08032700;5.40923460;2023-03-11T05:32:01;3.20;89.70
6536;DHT22;34330;52.08032700;5.40923460;2023-03-11T05:34:30;3.20;89.70
6536;DHT22;34330;52.08032700;5.40923460;2023-03-11T05:36:58;3.20;89.70
6536;DHT22;34330;52.08032700;5.40923460;2023-03-11T05:39:29;3.20;89.90
6536;DHT22;34330;52.08032700;5.40923460;2023-03-11T05:41:57;3.20;89.60
6536;DHT22;34330;52.08032700;5.40923460;2023-03-11T05:44:25;3.10;89.90
6536;DHT22;34330;52.08032700;5.40923460;2023-03-11T05:46:53;5.40;90.90
6536;DHT22;34330;52.08032700;5.40923460;2023-03-11T05:49:23;3.10;90.00
6536;DHT22;34330;52.08032700;5.40923460;2023-03-11T05:51:52;5.60;91.10
6536;DHT22;34330;52.08032700;5.40923460;2023-03-11T05:54:24;3.10;90.10
6536;DHT22;34330;52.08032700;5.40923460;2023-03-11T05:56:52;3.10;90.20
6536;DHT22;34330;52.08032700;5.40923460;2023-03-11T05:59:21;3.00;90.10
6536;DHT22;34330;52.08032700;5.40923460;2023-03-11T06:01:49;3.00;90.10
6536;DHT22;34330;52.08032700;5.40923460;2023-03-11T06:04:17;3.00;90.10
6536;DHT22;34330;52.08032700;5.40923460;2023-03-11T06:06:47;3.00;90.10
6536;DHT22;34330;52.08032700;5.40923460;2023-03-11T06:09:15;3.00;90.00
6536;DHT22;34330;52.08032700;5.40923460;2023-03-11T06:11:43;2.90;90.00
6536;DHT22;34330;52.08032700;5.40923460;2023-03-11T06:14:13;3.00;90.10
6536;DHT22;34330;52.08032700;5.40923460;2023-03-11T06:16:41;2.90;90.20
6536;DHT22;34330;52.08032700;5.40923460;2023-03-11T06:19:11;2.90;90.00
6536;DHT22;34330;52.08032700;5.40923460;2023-03-11T06:21:39;2.90;90.30
6536;DHT22;34330;52.08032700;5.40923460;2023-03-11T06:24:09;3.80;90.60
6536;DHT22;34330;52.08032700;5.40923460;2023-03-11T06:26:37;2.90;90.30
6536;DHT22;34330;52.08032700;5.40923460;2023-03-11T06:29:07;2.90;90.30
6536;DHT22;34330;52.08032700;5.40923460;2023-03-11T06:31:38;2.90;90.50
6536;DHT22;34330;52.08032700;5.40923460;2023-03-11T06:34:08;2.90;90.40
6536;DHT22;34330;52.08032700;5.40923460;2023-03-11T06:36:37;2.90;90.40
6536;DHT22;34330;52.08032700;5.40923460;2023-03-11T06:39:05;2.90;90.40
6536;DHT22;34330;52.08032700;5.40923460;2023-03-11T06:41:34;2.90;90.40
6536;DHT22;34330;52.08032700;5.40923460;2023-03-11T06:44:02;2.90;90.40
6536;DHT22;34330;52.08032700;5.40923460;2023-03-11T06:46:30;2.90;90.40
6536;DHT22;34330;52.08032700;5.40923460;2023-03-11T06:48:58;2.90;90.50
6536;DHT22;34330;52.08032700;5.40923460;2023-03-11T06:51:26;2.90;90.60
6536;DHT22;34330;52.08032700;5.40923460;2023-03-11T06:53:55;2.90;90.60
6536;DHT22;34330;52.08032700;5.40923460;2023-03-11T06:56:23;2.50;90.40
6536;DHT22;34330;52.08032700;5.40923460;2023-03-11T06:58:52;2.90;90.60
6536;DHT22;34330;52.08032700;5.40923460;2023-03-11T07:01:22;2.90;90.60
6536;DHT22;34330;52.08032700;5.40923460;2023-03-11T07:03:50;3.00;90.90
6536;DHT22;34330;52.08032700;5.40923460;2023-03-11T07:06:22;3.00;90.90
6536;DHT22;34330;52.08032700;5.40923460;2023-03-11T07:08:51;3.00;90.90
6536;DHT22;34330;52.08032700;5.40923460;2023-03-11T07:11:20;3.00;90.90
6536;DHT22;34330;52.08032700;5.40923460;2023-03-11T07:13:49;3.10;90.90
6536;DHT22;34330;52.08032700;5.40923460;2023-03-11T07:16:20;3.10;91.00
6536;DHT22;34330;52.08032700;5.40923460;2023-03-11T07:18:49;3.10;91.00
6536;DHT22;34330;52.08032700;5.40923460;2023-03-11T07:21:20;3.70;91.30
6536;DHT22;34330;52.08032700;5.40923460;2023-03-11T07:23:51;3.20;91.10
6536;DHT22;34330;52.08032700;5.40923460;2023-03-11T07:26:19;3.20;91.00
6536;DHT22;34330;52.08032700;5.40923460;2023-03-11T07:28:48;3.20;91.10
6536;DHT22;34330;52.08032700;5.40923460;2023-03-11T07:31:18;3.30;91.10
6536;DHT22;34330;52.08032700;5.40923460;2023-03-11T07:33:47;3.30;91.20
6536;DHT22;34330;52.08032700;5.40923460;2023-03-11T07:36:16;3.30;91.20
6536;DHT22;34330;52.08032700;5.40923460;2023-03-11T07:38:45;3.40;91.30
6536;DHT22;34330;52.08032700;5.40923460;2023-03-11T07:41:14;3.40;91.30
6536;DHT22;34330;52.08032700;5.40923460;2023-03-11T07:43:43;3.50;91.30
6536;DHT22;34330;52.08032700;5.40923460;2023-03-11T07:46:13;4.90;91.80
6536;DHT22;34330;52.08032700;5.40923460;2023-03-11T07:48:45;3.60;91.30
6536;DHT22;34330;52.08032700;5.40923460;2023-03-11T07:51:14;3.60;91.40
6536;DHT22;34330;52.08032700;5.40923460;2023-03-11T07:53:44;3.70;91.40
6536;DHT22;34330;52.08032700;5.40923460;2023-03-11T07:56:14;3.70;91.40
6536;DHT22;34330;52.08032700;5.40923460;2023-03-11T07:58:43;3.80;91.40
6536;DHT22;34330;52.08032700;5.40923460;2023-03-11T08:01:13;3.90;91.40
6536;DHT22;34330;52.08032700;5.40923460;2023-03-11T08:03:47;4.60;91.70
6536;DHT22;34330;52.08032700;5.40923460;2023-03-11T08:06:18;4.00;91.40
6536;DHT22;34330;52.08032700;5.40923460;2023-03-11T08:08:47;4.10;91.30
6536;DHT22;34330;52.08032700;5.40923460;2023-03-11T08:11:15;4.20;91.30
6536;DHT22;34330;52.08032700;5.40923460;2023-03-11T08:13:44;4.30;91.30
6536;DHT22;34330;52.08032700;5.40923460;2023-03-11T08:16:14;4.30;91.20
6536;DHT22;34330;52.08032700;5.40923460;2023-03-11T08:18:45;4.40;91.10
6536;DHT22;34330;52.08032700;5.40923460;2023-03-11T08:21:16;4.50;91.10
6536;DHT22;34330;52.08032700;5.40923460;2023-03-11T08:23:44;4.50;91.10
6536;DHT22;34330;52.08032700;5.40923460;2023-03-11T08:26:14;4.60;91.00
6536;DHT22;34330;52.08032700;5.40923460;2023-03-11T08:28:43;4.70;91.00
6536;DHT22;34330;52.08032700;5.40923460;2023-03-11T08:31:12;4.80;90.90
6536;DHT22;34330;52.08032700;5.40923460;2023-03-11T08:33:41;4.80;90.80
6536;DHT22;34330;52.08032700;5.40923460;2023-03-11T08:36:11;4.90;90.80
6536;DHT22;34330;52.08032700;5.40923460;2023-03-11T08:38:39;5.00;90.80
6536;DHT22;34330;52.08032700;5.40923460;2023-03-11T08:41:07;5.10;90.70
6536;DHT22;34330;52.08032700;5.40923460;2023-03-11T08:43:35;5.10;90.60
6536;DHT22;34330;52.08032700;5.40923460;2023-03-11T08:46:04;5.20;90.70
6536;DHT22;34330;52.08032700;5.40923460;2023-03-11T08:48:35;7.10;91.40
6536;DHT22;34330;52.08032700;5.40923460;2023-03-11T08:51:08;5.40;90.80
6536;DHT22;34330;52.08032700;5.40923460;2023-03-11T08:53:38;5.50;90.80
6536;DHT22;34330;52.08032700;5.40923460;2023-03-11T08:56:06;5.50;90.60
6536;DHT22;34330;52.08032700;5.40923460;2023-03-11T08:58:34;5.60;90.50
6536;DHT22;34330;52.08032700;5.40923460;2023-03-11T09:01:03;5.70;90.40
6536;DHT22;34330;52.08032700;5.40923460;2023-03-11T09:03:31;5.70;90.20
6536;DHT22;34330;52.08032700;5.40923460;2023-03-11T09:06:02;5.80;90.00
6536;DHT22;34330;52.08032700;5.40923460;2023-03-11T09:08:31;6.90;90.10
6536;DHT22;34330;52.08032700;5.40923460;2023-03-11T09:11:00;5.90;88.80
6536;DHT22;34330;52.08032700;5.40923460;2023-03-11T09:13:29;6.00;88.10
6536;DHT22;34330;52.08032700;5.40923460;2023-03-11T09:15:58;6.10;88.10
6536;DHT22;34330;52.08032700;5.40923460;2023-03-11T09:18:27;6.20;87.70
6536;DHT22;34330;52.08032700;5.40923460;2023-03-11T09:20:55;6.20;87.30
6536;DHT22;34330;52.08032700;5.40923460;2023-03-11T09:23:24;6.30;86.60
6536;DHT22;34330;52.08032700;5.40923460;2023-03-11T09:25:52;6.60;86.40
6536;DHT22;34330;52.08032700;5.40923460;2023-03-11T09:28:21;6.40;85.80
6536;DHT22;34330;52.08032700;5.40923460;2023-03-11T09:30:49;7.40;86.20
6536;DHT22;34330;52.08032700;5.40923460;2023-03-11T09:33:17;6.50;85.70
6536;DHT22;34330;52.08032700;5.40923460;2023-03-11T09:35:45;6.50;85.10
6536;DHT22;34330;52.08032700;5.40923460;2023-03-11T09:38:13;6.60;84.60
6536;DHT22;34330;52.08032700;5.40923460;2023-03-11T09:40:50;6.60;84.40
6536;DHT22;34330;52.08032700;5.40923460;2023-03-11T13:32:20;10.00;73.70
6536;DHT22;34330;52.08032700;5.40923460;2023-03-11T13:34:57;10.30;72.30
6536;DHT22;34330;52.08032700;5.40923460;2023-03-11T13:37:35;10.00;73.30
6536;DHT22;34330;52.08032700;5.40923460;2023-03-11T13:40:22;10.00;72.20
6536;DHT22;34330;52.08032700;5.40923460;2023-03-11T13:42:55;10.10;72.50
6536;DHT22;34330;52.08032700;5.40923460;2023-03-11T13:45:28;10.20;72.00
6536;DHT22;34330;52.08032700;5.40923460;2023-03-11T13:48:00;10.30;71.60
6536;DHT22;34330;52.08032700;5.40923460;2023-03-11T13:50:33;10.30;71.30
6536;DHT22;34330;52.08032700;5.40923460;2023-03-11T13:53:07;10.40;72.10
6536;DHT22;34330;52.08032700;5.40923460;2023-03-11T13:55:39;10.50;70.60
6536;DHT22;34330;52.08032700;5.40923460;2023-03-11T13:58:17;10.50;71.10
6536;DHT22;34330;52.08032700;5.40923460;2023-03-11T14:00:47;10.60;70.30
6536;DHT22;34330;52.08032700;5.40923460;2023-03-11T14:03:18;10.70;70.20
6536;DHT22;34330;52.08032700;5.40923460;2023-03-11T14:05:49;10.80;69.30
6536;DHT22;34330;52.08032700;5.40923460;2023-03-11T14:08:20;10.90;69.40
6536;DHT22;34330;52.08032700;5.40923460;2023-03-11T14:10:53;11.00;69.40
6536;DHT22;34330;52.08032700;5.40923460;2023-03-11T14:13:23;11.10;67.70
6536;DHT22;34330;52.08032700;5.40923460;2023-03-11T14:15:55;11.10;67.20
6536;DHT22;34330;52.08032700;5.40923460;2023-03-11T14:18:35;11.20;66.90
6536;DHT22;34330;52.08032700;5.40923460;2023-03-11T14:21:05;11.20;65.60
6536;DHT22;34330;52.08032700;5.40923460;2023-03-11T14:23:35;11.30;66.70
6536;DHT22;34330;52.08032700;5.40923460;2023-03-11T14:26:06;11.30;66.40
6536;DHT22;34330;52.08032700;5.40923460;2023-03-11T14:28:37;11.40;65.60
6536;DHT22;34330;52.08032700;5.40923460;2023-03-11T14:31:06;11.50;65.60
6536;DHT22;34330;52.08032700;5.40923460;2023-03-11T14:33:55;11.60;65.00
6536;DHT22;34330;52.08032700;5.40923460;2023-03-11T14:36:24;14.00;66.30
6536;DHT22;34330;52.08032700;5.40923460;2023-03-11T14:38:52;11.80;66.20
6536;DHT22;34330;52.08032700;5.40923460;2023-03-11T14:41:22;11.70;64.80
6536;DHT22;34330;52.08032700;5.40923460;2023-03-11T14:43:51;11.70;65.10
6536;DHT22;34330;52.08032700;5.40923460;2023-03-11T14:46:24;11.80;63.90
6536;DHT22;34330;52.08032700;5.40923460;2023-03-11T14:48:55;11.80;63.40
6536;DHT22;34330;52.08032700;5.40923460;2023-03-11T14:51:26;11.80;64.00
6536;DHT22;34330;52.08032700;5.40923460;2023-03-11T14:54:06;11.80;63.90
6536;DHT22;34330;52.08032700;5.40923460;2023-03-11T14:56:36;11.80;63.00
6536;DHT22;34330;52.08032700;5.40923460;2023-03-11T14:59:09;11.90;64.80
6536;DHT22;34330;52.08032700;5.40923460;2023-03-11T15:01:40;12.00;65.20
6536;DHT22;34330;52.08032700;5.40923460;2023-03-11T15:04:12;12.20;65.70
6536;DHT22;34330;52.08032700;5.40923460;2023-03-11T15:06:43;12.40;64.80
6536;DHT22;34330;52.08032700;5.40923460;2023-03-11T15:09:13;12.70;64.80
6536;DHT22;34330;52.08032700;5.40923460;2023-03-11T15:11:46;13.00;63.80
6536;DHT22;34330;52.08032700;5.40923460;2023-03-11T15:14:24;13.20;62.10
6536;DHT22;34330;52.08032700;5.40923460;2023-03-11T15:16:55;13.50;61.10
6536;DHT22;34330;52.08032700;5.40923460;2023-03-11T15:19:40;13.70;61.20
6536;DHT22;34330;52.08032700;5.40923460;2023-03-11T15:22:23;13.90;60.20
6536;DHT22;34330;52.08032700;5.40923460;2023-03-11T15:24:53;14.30;59.50
6536;DHT22;34330;52.08032700;5.40923460;2023-03-11T15:27:29;14.00;58.60
6536;DHT22;34330;52.08032700;5.40923460;2023-03-11T15:29:59;14.10;58.60
6536;DHT22;34330;52.08032700;5.40923460;2023-03-11T15:32:39;14.20;59.80
6536;DHT22;34330;52.08032700;5.40923460;2023-03-11T15:35:15;14.30;57.50
6536;DHT22;34330;52.08032700;5.40923460;2023-03-11T15:37:45;14.50;58.70
6536;DHT22;34330;52.08032700;5.40923460;2023-03-11T15:40:20;14.70;59.20
6536;DHT22;34330;52.08032700;5.40923460;2023-03-11T15:43:22;14.80;56.10
6536;DHT22;34330;52.08032700;5.40923460;2023-03-11T15:45:51;14.90;54.20
6536;DHT22;34330;52.08032700;5.40923460;2023-03-11T15:48:21;14.90;55.30
6536;DHT22;34330;52.08032700;5.40923460;2023-03-11T15:50:51;14.80;54.80
6536;DHT22;34330;52.08032700;5.40923460;2023-03-11T15:53:23;14.80;54.10
6536;DHT22;34330;52.08032700;5.40923460;2023-03-11T15:55:53;14.70;54.30
6536;DHT22;34330;52.08032700;5.40923460;2023-03-11T15:58:32;14.60;53.00
6536;DHT22;34330;52.08032700;5.40923460;2023-03-11T16:01:00;14.50;53.10
6536;DHT22;34330;52.08032700;5.40923460;2023-03-11T16:03:28;14.40;53.50
6536;DHT22;34330;52.08032700;5.40923460;2023-03-11T16:05:58;14.30;52.90
6536;DHT22;34330;52.08032700;5.40923460;2023-03-11T16:08:26;14.00;52.40
6536;DHT22;34330;52.08032700;5.40923460;2023-03-11T16:10:54;13.80;52.80
6536;DHT22;34330;52.08032700;5.40923460;2023-03-11T16:13:23;13.60;51.90
6536;DHT22;34330;52.08032700;5.40923460;2023-03-11T16:15:52;13.40;52.30
6536;DHT22;34330;52.08032700;5.40923460;2023-03-11T16:18:20;13.30;52.50
6536;DHT22;34330;52.08032700;5.40923460;2023-03-11T16:20:49;13.10;53.20
6536;DHT22;34330;52.08032700;5.40923460;2023-03-11T16:23:21;13.00;54.00
6536;DHT22;34330;52.08032700;5.40923460;2023-03-11T16:25:52;13.00;54.10
6536;DHT22;34330;52.08032700;5.40923460;2023-03-11T16:28:22;13.00;54.80
6536;DHT22;34330;52.08032700;5.40923460;2023-03-11T16:30:50;13.00;54.90
6536;DHT22;34330;52.08032700;5.40923460;2023-03-11T16:33:18;13.10;55.60
6536;DHT22;34330;52.08032700;5.40923460;2023-03-11T16:35:46;13.20;55.30
6536;DHT22;34330;52.08032700;5.40923460;2023-03-11T16:38:14;13.30;55.10
6536;DHT22;34330;52.08032700;5.40923460;2023-03-11T16:40:54;13.50;54.80
6536;DHT22;34330;52.08032700;5.40923460;2023-03-11T16:43:22;13.50;54.50
6536;DHT22;34330;52.08032700;5.40923460;2023-03-11T16:45:50;13.50;54.20
6536;DHT22;34330;52.08032700;5.40923460;2023-03-11T16:48:19;13.30;53.50
6536;DHT22;34330;52.08032700;5.40923460;2023-03-11T16:50:48;13.20;53.40
6536;DHT22;34330;52.08032700;5.40923460;2023-03-11T16:53:16;13.10;53.40
6536;DHT22;34330;52.08032700;5.40923460;2023-03-11T16:55:46;12.90;53.20
6536;DHT22;34330;52.08032700;5.40923460;2023-03-11T16:58:14;12.70;52.50
6536;DHT22;34330;52.08032700;5.40923460;2023-03-11T17:00:43;12.60;52.90
6536;DHT22;34330;52.08032700;5.40923460;2023-03-11T17:03:16;12.40;53.50
6536;DHT22;34330;52.08032700;5.40923460;2023-03-11T17:05:47;12.20;53.30
6536;DHT22;34330;52.08032700;5.40923460;2023-03-11T17:08:15;12.10;55.10
6536;DHT22;34330;52.08032700;5.40923460;2023-03-11T17:10:45;11.90;54.90
6536;DHT22;34330;52.08032700;5.40923460;2023-03-11T17:13:14;11.70;54.10
6536;DHT22;34330;52.08032700;5.40923460;2023-03-11T17:15:44;11.60;54.20
6536;DHT22;34330;52.08032700;5.40923460;2023-03-11T17:18:13;11.50;55.00
6536;DHT22;34330;52.08032700;5.40923460;2023-03-11T17:20:41;11.40;55.20
6536;DHT22;34330;52.08032700;5.40923460;2023-03-11T17:23:11;11.20;56.00
6536;DHT22;34330;52.08032700;5.40923460;2023-03-11T17:25:40;11.10;56.00
6536;DHT22;34330;52.08032700;5.40923460;2023-03-11T17:28:10;11.30;56.50
6536;DHT22;34330;52.08032700;5.40923460;2023-03-11T17:30:41;11.00;55.80
6536;DHT22;34330;52.08032700;5.40923460;2023-03-11T17:33:10;10.80;56.00
6536;DHT22;34330;52.08032700;5.40923460;2023-03-11T17:35:38;10.70;56.50
6536;DHT22;34330;52.08032700;5.40923460;2023-03-11T17:38:06;10.70;57.20
6536;DHT22;34330;52.08032700;5.40923460;2023-03-11T17:40:34;10.60;57.40
6536;DHT22;34330;52.08032700;5.40923460;2023-03-11T17:43:02;10.60;58.30
6536;DHT22;34330;52.08032700;5.40923460;2023-03-11T17:45:32;10.40;58.70